Time,TemperatureF,DewpointF,PressureIn,WindDirection,WindDirectionDegrees,WindSpeedMPH,WindSpeedGustMPH,Humidity,HourlyPrecipIn,Conditions,Clouds,dailyrainin,SoftwareType,DateUTC
2013-08-25 00:02:00,-999.0,-99.9,30.31,SW,224,2.0,4.0,-999,-99.99,,,-99.99,,2013-08-25 04:02:00,
2013-08-25 00:14:00,69.0,57.0,30.31,SW,224,2.0,4.0,66,0.00,,,0.00,,2013-08-25 04:14:00,
2013-08-25 00:25:00,69.0,57.0,30.32,SW,221,0.0,3.0,66,0.00,,,0.00,,2013-08-25 04:25:00,
2013-08-25 00:34:00,69.0,57.0,30.32,SW,221,0.0,3.0,66,0.00,,,0.00,,2013-08-25 04:34:00,
2013-08-25 00:54:00,67.0,57.0,30.31,SW,232,0.0,2.0,71,0.00,,,0.00,,2013-08-25 04:54:00,
2013-08-25 01:23:00,66.0,58.0,30.30,SW,233,0.0,0.0,75,0.00,,,0.00,,2013-08-25 05:23:00,
2013-08-25 01:34:00,66.0,58.0,30.30,SW,233,0.0,0.0,75,0.00,,,0.00,,2013-08-25 05:34:00,
2013-08-25 01:52:00,64.0,57.0,30.30,SW,236,0.0,0.0,77,0.00,,,0.00,,2013-08-25 05:52:00,
2013-08-25 02:12:00,64.0,57.0,30.30,SW,235,0.0,0.0,78,0.00,,,0.00,,2013-08-25 06:12:00,
2013-08-25 02:22:00,64.0,57.0,30.29,SW,236,0.0,0.0,79,0.00,,,0.00,,2013-08-25 06:22:00,
2013-08-25 02:52:00,64.0,58.0,30.29,SW,235,0.0,0.0,80,0.00,,,0.00,,2013-08-25 06:52:00,
2013-08-25 03:12:00,63.0,57.0,30.29,WSW,237,1.0,1.0,80,0.00,,,0.00,,2013-08-25 07:12:00,
2013-08-25 03:22:00,63.0,57.0,30.29,SW,233,0.0,0.0,82,0.00,,,0.00,,2013-08-25 07:22:00,
2013-08-25 03:52:00,63.0,58.0,30.29,SW,236,0.0,0.0,83,0.00,,,0.00,,2013-08-25 07:52:00,
2013-08-25 04:21:00,62.0,57.0,30.30,SW,236,0.0,0.0,85,0.00,,,0.00,,2013-08-25 08:21:00,
2013-08-25 04:32:00,62.0,57.0,30.30,SW,236,0.0,0.0,85,0.00,,,0.00,,2013-08-25 08:32:00,
2013-08-25 04:52:00,62.0,57.0,30.31,SW,236,0.0,0.0,85,0.00,,,0.00,,2013-08-25 08:52:00,
2013-08-25 05:11:00,62.0,57.0,30.31,WSW,237,0.0,0.0,85,0.00,,,0.00,,2013-08-25 09:11:00,
2013-08-25 05:22:00,62.0,57.0,30.31,WSW,237,0.0,0.0,85,0.00,,,0.00,,2013-08-25 09:22:00,
2013-08-25 05:55:00,61.0,57.0,30.32,SW,234,0.0,0.0,86,0.00,,,0.00,,2013-08-25 09:55:00,
2013-08-25 06:03:00,61.0,57.0,30.32,SW,234,0.0,0.0,86,0.00,,,0.00,,2013-08-25 10:03:00,
2013-08-25 06:23:00,60.0,56.0,30.33,SW,234,0.0,0.0,86,0.00,,,0.00,,2013-08-25 10:23:00,
2013-08-25 06:33:00,60.0,56.0,30.33,SW,234,0.0,0.0,86,0.00,,,0.00,,2013-08-25 10:33:00,
2013-08-25 06:53:00,60.0,56.0,30.33,SW,234,0.0,0.0,87,0.00,,,0.00,,2013-08-25 10:53:00,
2013-08-25 07:02:00,60.0,56.0,30.33,SW,234,0.0,0.0,87,0.00,,,0.00,,2013-08-25 11:02:00,
2013-08-25 07:22:00,60.0,56.0,30.35,SW,235,0.0,0.0,88,0.00,,,0.00,,2013-08-25 11:22:00,
2013-08-25 07:52:00,62.0,58.0,30.35,SW,234,0.0,0.0,87,0.00,,,0.00,,2013-08-25 11:52:00,
2013-08-25 08:22:00,64.0,57.0,30.35,SW,232,0.0,0.0,79,0.00,,,0.00,,2013-08-25 12:22:00,
2013-08-25 08:32:00,64.0,57.0,30.35,SW,232,0.0,0.0,79,0.00,,,0.00,,2013-08-25 12:32:00,
2013-08-25 08:52:00,69.0,56.0,30.35,WSW,248,3.0,6.0,63,0.00,,,0.00,,2013-08-25 12:52:00,
2013-08-25 09:22:00,72.0,56.0,30.35,West,267,2.0,4.0,57,0.00,,,0.00,,2013-08-25 13:22:00,
2013-08-25 09:52:00,73.0,55.0,30.36,NNW,332,3.0,5.0,54,0.00,,,0.00,,2013-08-25 13:52:00,
2013-08-25 10:02:00,73.0,55.0,30.36,NNW,332,3.0,5.0,54,0.00,,,0.00,,2013-08-25 14:02:00,
2013-08-25 10:26:00,75.0,55.0,30.35,WNW,283,3.0,5.0,50,0.00,,,0.00,,2013-08-25 14:26:00,
2013-08-25 10:52:00,78.0,55.0,30.35,WSW,243,5.0,5.0,45,0.00,,,0.00,,2013-08-25 14:52:00,
2013-08-25 11:01:00,78.0,55.0,30.35,WSW,243,5.0,5.0,45,0.00,,,0.00,,2013-08-25 15:01:00,
2013-08-25 11:23:00,80.0,48.0,30.34,WSW,241,0.0,5.0,33,0.00,,,0.00,,2013-08-25 15:23:00,
2013-08-25 11:55:00,80.0,52.0,30.33,NNW,329,2.0,3.0,38,0.00,,,0.00,,2013-08-25 15:55:00,
2013-08-25 12:24:00,81.0,47.0,30.32,WSW,248,0.0,5.0,31,0.00,,,0.00,,2013-08-25 16:24:00,
2013-08-25 12:53:00,82.0,48.0,30.31,SSW,208,0.0,3.0,31,0.00,,,0.00,,2013-08-25 16:53:00,
2013-08-25 13:23:00,84.0,46.0,30.30,WSW,240,3.0,6.0,27,0.00,,,0.00,,2013-08-25 17:23:00,
2013-08-25 13:53:00,84.0,49.0,30.30,NW,310,3.0,9.0,30,0.00,,,0.00,,2013-08-25 17:53:00,
2013-08-25 14:02:00,84.0,49.0,30.30,NW,310,3.0,9.0,30,0.00,,,0.00,,2013-08-25 18:02:00,
2013-08-25 14:12:00,84.0,49.0,30.30,NW,310,3.0,9.0,30,0.00,,,0.00,,2013-08-25 18:12:00,
2013-08-25 14:22:00,84.0,49.0,30.29,WSW,258,2.0,12.0,30,0.00,,,0.00,,2013-08-25 18:22:00,
2013-08-25 14:52:00,84.0,49.0,30.29,West,278,2.0,11.0,30,0.00,,,0.00,,2013-08-25 18:52:00,
2013-08-25 15:12:00,84.0,48.0,30.29,SW,231,1.0,9.0,29,0.00,,,0.00,,2013-08-25 19:12:00,
2013-08-25 15:22:00,84.0,48.0,30.29,North,349,6.0,10.0,29,0.00,,,0.00,,2013-08-25 19:22:00,
2013-08-25 15:53:00,84.0,48.0,30.29,WNW,287,2.0,10.0,29,0.00,,,0.00,,2013-08-25 19:53:00,
2013-08-25 16:12:00,84.0,50.0,30.27,SW,226,2.0,10.0,31,0.00,,,0.00,,2013-08-25 20:12:00,
2013-08-25 16:23:00,83.0,48.0,30.27,West,266,3.0,9.0,30,0.00,,,0.00,,2013-08-25 20:23:00,
2013-08-25 16:33:00,83.0,48.0,30.27,West,266,3.0,9.0,30,0.00,,,0.00,,2013-08-25 20:33:00,
2013-08-25 16:53:00,83.0,47.0,30.26,SW,224,2.0,9.0,29,0.00,,,0.00,,2013-08-25 20:53:00,
2013-08-25 17:02:00,83.0,47.0,30.26,SW,224,2.0,9.0,29,0.00,,,0.00,,2013-08-25 21:02:00,
2013-08-25 17:22:00,83.0,51.0,30.25,NNW,330,5.0,11.0,33,0.00,,,0.00,,2013-08-25 21:22:00,
2013-08-25 17:34:00,83.0,51.0,30.25,NNW,330,5.0,11.0,33,0.00,,,0.00,,2013-08-25 21:34:00,
2013-08-25 17:55:00,81.0,49.0,30.24,WNW,291,8.0,8.0,33,0.00,,,0.00,,2013-08-25 21:55:00,
2013-08-25 18:24:00,81.0,52.0,30.23,WSW,243,3.0,5.0,36,0.00,,,0.00,,2013-08-25 22:24:00,
2013-08-25 18:34:00,81.0,52.0,30.23,WSW,243,3.0,5.0,36,0.00,,,0.00,,2013-08-25 22:34:00,
2013-08-25 18:53:00,80.0,51.0,30.22,WSW,239,3.0,8.0,37,0.00,,,0.00,,2013-08-25 22:53:00,
2013-08-25 19:12:00,80.0,52.0,30.22,WSW,247,3.0,6.0,38,0.00,,,0.00,,2013-08-25 23:12:00,
2013-08-25 19:23:00,79.0,51.0,30.22,WSW,248,3.0,9.0,38,0.00,,,0.00,,2013-08-25 23:23:00,
2013-08-25 19:53:00,78.0,51.0,30.22,SW,231,4.0,9.0,39,0.00,,,0.00,,2013-08-25 23:53:00,
2013-08-25 20:22:00,78.0,52.0,30.22,South,188,2.0,11.0,40,0.00,,,0.00,,2013-08-26 00:22:00,
2013-08-25 20:32:00,78.0,52.0,30.22,South,188,2.0,11.0,40,0.00,,,0.00,,2013-08-26 00:32:00,
2013-08-25 20:42:00,78.0,52.0,30.22,South,188,2.0,11.0,40,0.00,,,0.00,,2013-08-26 00:42:00,
2013-08-25 20:52:00,77.0,51.0,30.22,WSW,243,1.0,6.0,40,0.00,,,0.00,,2013-08-26 00:52:00,
2013-08-25 21:11:00,77.0,51.0,30.22,WSW,250,3.0,6.0,41,0.00,,,0.00,,2013-08-26 01:11:00,
2013-08-25 21:22:00,76.0,51.0,30.22,West,259,4.0,5.0,42,0.00,,,0.00,,2013-08-26 01:22:00,
2013-08-25 21:42:00,76.0,51.0,30.22,WSW,238,1.0,6.0,42,0.00,,,0.00,,2013-08-26 01:42:00,
2013-08-25 21:52:00,75.0,53.0,30.22,South,173,2.0,8.0,47,0.00,,,0.00,,2013-08-26 01:52:00,
2013-08-25 22:02:00,75.0,53.0,30.22,South,173,2.0,8.0,47,0.00,,,0.00,,2013-08-26 02:02:00,
2013-08-25 22:22:00,73.0,55.0,30.22,South,187,4.0,8.0,53,0.00,,,0.00,,2013-08-26 02:22:00,
2013-08-25 22:42:00,73.0,55.0,30.22,South,191,3.0,6.0,53,0.00,,,0.00,,2013-08-26 02:42:00,
2013-08-25 22:52:00,73.0,55.0,30.22,South,191,3.0,6.0,53,0.00,,,0.00,,2013-08-26 02:52:00,
2013-08-25 23:02:00,73.0,55.0,30.22,South,191,3.0,6.0,53,0.00,,,0.00,,2013-08-26 03:02:00,
2013-08-25 23:22:00,72.0,54.0,30.22,SSW,193,3.0,6.0,54,0.00,,,0.00,,2013-08-26 03:22:00,
2013-08-25 23:34:00,72.0,54.0,30.22,SSW,193,3.0,6.0,54,0.00,,,0.00,,2013-08-26 03:34:00,
2013-08-25 23:56:00,72.0,54.0,30.21,SW,226,4.0,11.0,53,0.00,,,0.00,,2013-08-26 03:56:00,